createdAt,value
2022-11-09T00:01:40.185Z,24.17
2022-11-09T00:04:07.517Z,24.63
2022-11-09T00:06:34.753Z,26.50
2022-11-09T00:09:07.480Z,24.60
2022-11-09T00:11:34.929Z,25.40
2022-11-09T00:14:01.301Z,25.35
2022-11-09T00:16:27.673Z,25.90
2022-11-09T00:18:55.825Z,25.40
2022-11-09T00:21:24.102Z,25.05
2022-11-09T00:23:51.205Z,25.10
2022-11-09T00:26:18.962Z,25.35
2022-11-09T00:28:45.729Z,24.83
2022-11-09T00:31:14.585Z,25.98
2022-11-09T00:33:41.102Z,25.58
2022-11-09T00:36:11.343Z,25.98
2022-11-09T00:38:40.261Z,25.63
2022-11-09T00:41:08.907Z,26.25
2022-11-09T00:43:36.030Z,25.20
2022-11-09T00:46:03.246Z,25.52
2022-11-09T00:48:29.891Z,25.67
2022-11-09T00:50:57.476Z,25.77
2022-11-09T00:53:24.942Z,24.25
2022-11-09T00:55:59.714Z,26.92
2022-11-09T00:58:28.095Z,23.38
2022-11-09T01:00:57.228Z,22.83
2022-11-09T01:03:24.495Z,24.67
2022-11-09T01:05:51.399Z,23.52
2022-11-09T01:08:18.429Z,24.08
2022-11-09T01:10:47.547Z,24.08
2022-11-09T01:13:16.673Z,23.17
2022-11-09T01:15:45.370Z,23.15
2022-11-09T01:18:11.994Z,24.30
2022-11-09T01:20:40.331Z,23.65
2022-11-09T01:23:07.453Z,23.52
2022-11-09T01:25:34.084Z,23.35
2022-11-09T01:28:00.936Z,23.27
2022-11-09T01:30:27.954Z,23.80
2022-11-09T01:32:54.369Z,23.23
2022-11-09T01:35:20.719Z,23.58
2022-11-09T01:37:47.037Z,22.60
2022-11-09T01:40:13.605Z,22.20
2022-11-09T01:42:39.949Z,25.55
2022-11-09T01:45:21.892Z,25.15
2022-11-09T01:47:56.885Z,22.88
2022-11-09T01:50:36.103Z,22.58
2022-11-09T01:53:06.492Z,23.58
2022-11-09T01:55:33.064Z,23.67
2022-11-09T01:58:04.347Z,24.38
2022-11-09T02:00:32.779Z,25.45
2022-11-09T02:03:05.095Z,25.40
2022-11-09T02:05:34.940Z,24.70
2022-11-09T02:08:04.105Z,25.13
2022-11-09T02:10:50.059Z,24.25
2022-11-09T02:13:19.886Z,24.42
2022-11-09T02:15:49.092Z,26.35
2022-11-09T02:18:17.036Z,27.10
2022-11-09T02:20:57.861Z,24.75
2022-11-09T02:23:25.850Z,24.33
2022-11-09T02:26:01.375Z,24.63
2022-11-09T02:28:28.848Z,26.20
2022-11-09T02:30:57.092Z,24.88
2022-11-09T02:33:23.781Z,24.23
2022-11-09T02:35:50.253Z,24.00
2022-11-09T02:38:16.860Z,25.40
2022-11-09T02:40:47.985Z,23.95
2022-11-09T02:43:15.415Z,25.90
2022-11-09T02:45:41.821Z,25.38
2022-11-09T02:48:08.161Z,25.77
2022-11-09T02:50:36.079Z,26.02
2022-11-09T02:53:02.917Z,24.92
2022-11-09T02:55:29.239Z,24.95
2022-11-09T02:57:55.573Z,25.73
2022-11-09T03:00:22.053Z,25.85
2022-11-09T03:02:49.040Z,28.10
2022-11-09T03:05:15.393Z,28.63
2022-11-09T03:07:41.751Z,29.60
2022-11-09T03:10:08.510Z,29.48
2022-11-09T03:12:34.921Z,29.08
2022-11-09T03:15:03.976Z,28.85
2022-11-09T03:17:31.970Z,28.35
2022-11-09T03:19:58.488Z,29.65
2022-11-09T03:22:24.911Z,30.17
2022-11-09T03:24:51.328Z,29.95
2022-11-09T03:27:17.638Z,30.58
2022-11-09T03:29:44.043Z,28.95
2022-11-09T03:32:10.560Z,27.38
2022-11-09T03:34:36.973Z,28.67
2022-11-09T03:37:03.586Z,29.98
2022-11-09T03:39:30.005Z,30.10
2022-11-09T03:41:56.348Z,28.98
2022-11-09T03:44:22.678Z,28.65
2022-11-09T03:46:49.047Z,30.23
2022-11-09T03:49:15.400Z,28.10
2022-11-09T03:51:41.813Z,27.45
2022-11-09T03:54:08.281Z,27.50
2022-11-09T03:56:34.691Z,28.05
2022-11-09T03:59:01.023Z,27.98
2022-11-09T04:01:27.399Z,27.65
2022-11-09T04:03:53.772Z,28.45
2022-11-09T04:06:20.108Z,27.48
2022-11-09T04:08:51.124Z,28.55
2022-11-09T04:11:18.293Z,26.92
2022-11-09T04:13:44.633Z,28.65
2022-11-09T04:16:11.009Z,28.75
2022-11-09T04:18:37.367Z,28.80
2022-11-09T04:21:03.760Z,27.98
2022-11-09T04:23:30.133Z,27.88
2022-11-09T04:25:58.509Z,29.75
2022-11-09T04:28:24.896Z,27.77
2022-11-09T04:30:51.210Z,29.42
2022-11-09T04:33:17.881Z,29.55
2022-11-09T04:35:44.417Z,29.00
2022-11-09T04:38:13.151Z,29.23
2022-11-09T04:40:40.094Z,29.75
2022-11-09T04:43:07.981Z,26.60
2022-11-09T04:45:34.801Z,31.08
2022-11-09T04:48:03.406Z,29.63
2022-11-09T04:50:30.535Z,30.15
2022-11-09T04:53:13.397Z,30.92
2022-11-09T04:55:40.504Z,29.30
2022-11-09T04:58:07.422Z,30.92
2022-11-09T05:00:34.155Z,29.85
2022-11-09T05:03:05.417Z,31.33
2022-11-09T05:05:36.645Z,31.45
2022-11-09T05:08:04.230Z,30.73
2022-11-09T05:10:31.365Z,30.88
2022-11-09T05:13:02.400Z,31.65
2022-11-09T05:15:28.865Z,29.30
2022-11-09T05:17:55.912Z,30.15
2022-11-09T05:20:22.540Z,30.10
2022-11-09T05:23:07.669Z,31.77
2022-11-09T05:25:34.229Z,33.05
2022-11-09T05:28:00.599Z,30.38
2022-11-09T05:30:36.362Z,31.77
2022-11-09T05:33:02.766Z,32.85
2022-11-09T05:35:29.118Z,30.90
2022-11-09T05:37:55.417Z,31.63
2022-11-09T05:40:21.990Z,33.40
2022-11-09T05:42:48.280Z,35.33
2022-11-09T05:48:04.536Z,36.70
2022-11-09T05:50:31.041Z,36.88
2022-11-09T05:53:00.203Z,38.45
2022-11-09T05:55:27.118Z,39.38
2022-11-09T05:57:53.823Z,40.65
2022-11-09T06:00:21.157Z,37.30
2022-11-09T06:02:47.509Z,37.00
2022-11-09T06:05:14.510Z,36.97
2022-11-09T06:07:40.804Z,37.00
2022-11-09T06:10:07.998Z,36.08
2022-11-09T06:12:34.819Z,37.80
2022-11-09T06:15:01.267Z,36.90
2022-11-09T06:17:27.873Z,35.67
2022-11-09T06:19:54.287Z,36.25
2022-11-09T06:22:20.611Z,36.88
2022-11-09T06:24:46.923Z,37.63
2022-11-09T06:27:13.253Z,34.70
2022-11-09T06:29:40.114Z,35.40
2022-11-09T06:32:06.488Z,36.85
2022-11-09T06:34:32.933Z,35.38
2022-11-09T06:36:59.264Z,38.33
2022-11-09T06:39:25.813Z,39.13
2022-11-09T06:41:52.271Z,39.20
2022-11-09T06:44:18.580Z,39.70
2022-11-09T06:46:44.918Z,40.25
2022-11-09T06:49:11.381Z,38.63
2022-11-09T06:51:37.702Z,40.55
2022-11-09T06:54:04.029Z,40.10
2022-11-09T06:56:30.385Z,37.38
2022-11-09T06:58:56.708Z,41.95
2022-11-09T07:01:28.326Z,36.45
2022-11-09T07:03:54.807Z,41.63
2022-11-09T07:06:21.144Z,39.08
2022-11-09T07:08:47.597Z,37.55
2022-11-09T07:11:19.566Z,38.03
2022-11-09T07:13:52.256Z,36.90
2022-11-09T07:16:21.206Z,37.38
2022-11-09T07:18:47.527Z,39.17
2022-11-09T07:21:14.559Z,35.88
2022-11-09T07:23:42.243Z,37.20
2022-11-09T07:26:09.265Z,38.72
2022-11-09T07:28:35.643Z,38.25
2022-11-09T07:31:02.075Z,37.35
2022-11-09T07:33:30.465Z,36.95
2022-11-09T07:36:05.115Z,38.53
2022-11-09T07:38:31.521Z,37.25
2022-11-09T07:40:59.136Z,38.88
2022-11-09T07:43:25.817Z,40.25
2022-11-09T07:45:52.483Z,40.63
2022-11-09T07:48:18.843Z,41.20
2022-11-09T07:50:45.351Z,45.15
2022-11-09T07:53:14.502Z,40.15
2022-11-09T07:55:41.633Z,42.92
2022-11-09T07:58:15.146Z,44.38
2022-11-09T08:00:43.171Z,42.60
2022-11-09T08:03:09.922Z,42.38
2022-11-09T08:05:37.125Z,41.28
2022-11-09T08:08:06.952Z,42.58
2022-11-09T08:10:34.988Z,43.65
2022-11-09T08:13:10.753Z,43.58
2022-11-09T08:15:38.296Z,44.30
2022-11-09T08:18:08.350Z,44.35
2022-11-09T08:20:34.898Z,42.83
2022-11-09T08:23:04.900Z,43.17
2022-11-09T08:25:35.789Z,43.58
2022-11-09T08:28:03.520Z,39.15
2022-11-09T08:30:30.433Z,36.97
2022-11-09T08:32:58.728Z,38.85
2022-11-09T08:35:25.689Z,39.85
2022-11-09T08:37:53.388Z,40.85
2022-11-09T08:40:22.411Z,37.50
2022-11-09T08:42:49.086Z,39.20
2022-11-09T08:45:16.911Z,37.15
2022-11-09T08:47:43.367Z,36.67
2022-11-09T08:50:11.615Z,37.40
2022-11-09T08:52:38.080Z,38.10
2022-11-09T08:55:05.252Z,38.78
2022-11-09T08:57:31.647Z,37.25
2022-11-09T08:59:58.185Z,36.42
2022-11-09T09:02:24.940Z,35.42
2022-11-09T09:04:51.243Z,35.47
2022-11-09T09:07:17.593Z,36.60
2022-11-09T09:09:45.039Z,36.47
2022-11-09T09:12:11.365Z,34.25
2022-11-09T09:14:37.744Z,36.28
2022-11-09T09:17:04.964Z,29.85
2022-11-09T09:19:31.948Z,23.05
2022-11-09T09:21:59.046Z,20.52
2022-11-09T09:24:26.653Z,19.05
2022-11-09T09:26:52.980Z,21.83
2022-11-09T09:29:19.281Z,21.17
2022-11-09T09:31:45.640Z,23.58
2022-11-09T09:34:12.551Z,23.58
2022-11-09T09:36:44.736Z,18.30
2022-11-09T09:39:14.101Z,17.60
2022-11-09T09:41:47.975Z,16.48
2022-11-09T09:44:20.387Z,15.10
2022-11-09T09:47:04.081Z,15.77
2022-11-09T09:49:34.642Z,14.25
2022-11-09T09:52:12.299Z,15.75
2022-11-09T09:54:47.575Z,17.10
2022-11-09T09:57:19.116Z,13.90
2022-11-09T09:59:50.710Z,13.88
2022-11-09T10:02:22.842Z,13.15
2022-11-09T10:04:50.144Z,11.63
2022-11-09T10:07:24.553Z,9.55
2022-11-09T10:12:38.132Z,9.45
2022-11-09T10:15:26.286Z,9.70
2022-11-09T10:18:18.083Z,13.77
2022-11-09T10:21:18.412Z,17.35
2022-11-09T10:23:56.815Z,10.60
2022-11-09T10:26:38.375Z,7.90
2022-11-09T10:29:26.197Z,7.60
2022-11-09T10:32:01.606Z,7.85
2022-11-09T10:34:51.985Z,8.85
2022-11-09T10:37:38.901Z,8.77
2022-11-09T10:40:07.920Z,9.73
2022-11-09T10:42:34.418Z,9.68
2022-11-09T10:45:12.410Z,8.75
2022-11-09T10:47:50.828Z,16.33
2022-11-09T10:50:32.281Z,9.80
2022-11-09T10:53:29.306Z,8.82
2022-11-09T10:55:58.664Z,11.05
2022-11-09T10:58:35.119Z,10.80
2022-11-09T11:01:14.213Z,12.30
2022-11-09T11:03:42.236Z,11.48
2022-11-09T11:06:18.937Z,11.23
2022-11-09T11:08:47.948Z,9.38
2022-11-09T11:11:33.223Z,8.70
2022-11-09T11:14:28.182Z,8.00
2022-11-09T11:16:56.030Z,7.10
2022-11-09T11:19:29.469Z,6.22
2022-11-09T11:22:24.715Z,9.23
2022-11-09T11:25:04.666Z,8.63
2022-11-09T11:27:50.329Z,7.68
2022-11-09T11:30:20.031Z,7.55
2022-11-09T11:32:50.343Z,7.82
2022-11-09T11:35:28.785Z,7.57
2022-11-09T11:38:19.436Z,8.85
2022-11-09T11:41:05.364Z,7.28
2022-11-09T11:43:45.010Z,9.23
2022-11-09T11:46:45.506Z,10.55
2022-11-09T11:49:20.578Z,7.03
2022-11-09T11:52:10.401Z,9.68
2022-11-09T11:54:54.114Z,9.85
2022-11-09T11:57:38.331Z,9.15
2022-11-09T12:00:15.375Z,8.48
2022-11-09T12:03:25.413Z,10.27
2022-11-09T12:06:52.324Z,13.25
2022-11-09T12:09:45.026Z,8.73
2022-11-09T12:12:51.843Z,9.77
2022-11-09T12:15:52.109Z,10.30
2022-11-09T12:18:42.864Z,9.45
2022-11-09T12:21:18.612Z,9.32
2022-11-09T12:24:26.110Z,12.50
2022-11-09T12:27:30.962Z,9.90
2022-11-09T12:30:14.002Z,8.73
2022-11-09T12:32:55.678Z,7.90
2022-11-09T12:35:44.213Z,9.20
2022-11-09T12:38:31.327Z,8.70
2022-11-09T12:41:05.256Z,8.60
2022-11-09T12:43:57.476Z,10.50
2022-11-09T12:46:29.636Z,14.25
2022-11-09T12:49:01.714Z,9.80
2022-11-09T12:51:28.776Z,10.77
2022-11-09T12:53:56.897Z,10.30
2022-11-09T12:56:29.942Z,12.45
2022-11-09T12:59:27.535Z,13.55
2022-11-09T13:01:57.371Z,12.05
2022-11-09T13:04:25.651Z,9.68
2022-11-09T13:07:04.218Z,10.90
2022-11-09T13:09:44.152Z,9.30
2022-11-09T13:12:33.609Z,9.88
2022-11-09T13:15:22.175Z,8.90
2022-11-09T13:18:02.699Z,9.63
2022-11-09T13:23:54.756Z,9.80
2022-11-09T13:26:33.765Z,9.13
2022-11-09T13:29:21.636Z,11.13
2022-11-09T13:32:12.428Z,9.25
2022-11-09T13:34:43.013Z,9.60
2022-11-09T13:37:34.887Z,8.90
2022-11-09T13:40:02.328Z,11.38
2022-11-09T13:42:32.440Z,9.73
2022-11-09T13:45:27.844Z,9.75
2022-11-09T13:47:54.897Z,11.93
2022-11-09T13:50:27.252Z,10.35
2022-11-09T13:52:56.850Z,9.10
2022-11-09T13:55:38.668Z,9.25
2022-11-09T13:58:30.849Z,10.70
2022-11-09T14:00:57.480Z,9.35
2022-11-09T14:03:28.853Z,10.70
2022-11-09T14:05:59.115Z,9.57
2022-11-09T14:08:37.578Z,10.43
2022-11-09T14:11:40.002Z,11.02
2022-11-09T14:14:30.273Z,11.90
2022-11-09T14:17:07.439Z,9.75
2022-11-09T14:19:56.238Z,13.73
2022-11-09T14:22:22.854Z,16.23
2022-11-09T14:24:49.742Z,23.85
2022-11-09T14:27:20.225Z,21.45
2022-11-09T14:29:47.961Z,19.10
2022-11-09T14:32:25.142Z,18.15
2022-11-09T14:34:51.723Z,20.73
2022-11-09T14:37:18.673Z,21.77
2022-11-09T14:39:50.133Z,20.00
2022-11-09T14:42:20.609Z,23.95
2022-11-09T14:44:52.835Z,23.15
2022-11-09T14:47:27.176Z,23.30
2022-11-09T14:52:26.548Z,19.75
2022-11-09T14:54:54.039Z,22.95
2022-11-09T14:57:22.867Z,23.85
2022-11-09T14:59:49.284Z,24.10
2022-11-09T15:02:18.718Z,21.92
2022-11-09T15:05:02.376Z,21.60
2022-11-09T15:07:34.281Z,22.75
2022-11-09T15:10:07.697Z,22.23
2022-11-09T15:12:35.521Z,23.63
2022-11-09T15:15:05.906Z,21.00
2022-11-09T15:17:37.110Z,20.45
2022-11-09T15:20:09.155Z,20.20
2022-11-09T15:23:02.150Z,21.70
2022-11-09T15:25:34.386Z,25.15
2022-11-09T15:28:12.952Z,30.40
2022-11-09T15:30:46.412Z,28.42
2022-11-09T15:33:20.613Z,24.85
2022-11-09T15:35:51.060Z,25.60
2022-11-09T15:38:55.682Z,28.77
2022-11-09T15:41:24.756Z,35.47
2022-11-09T15:43:51.489Z,35.70
2022-11-09T15:46:21.339Z,37.47
2022-11-09T15:48:48.108Z,34.45
2022-11-09T15:51:15.854Z,34.20
2022-11-09T15:53:42.457Z,33.33
2022-11-09T15:56:25.260Z,32.85
2022-11-09T15:58:53.412Z,33.42
2022-11-09T16:01:19.806Z,35.28
2022-11-09T16:03:46.149Z,34.35
2022-11-09T16:06:22.396Z,35.55
2022-11-09T16:08:50.060Z,39.20
2022-11-09T16:11:16.708Z,38.63
2022-11-09T16:13:43.129Z,37.75
2022-11-09T16:16:11.967Z,38.95
2022-11-09T16:18:38.334Z,38.72
2022-11-09T16:21:13.720Z,36.63
2022-11-09T16:23:40.360Z,30.52
2022-11-09T16:26:09.513Z,31.63
2022-11-09T16:28:37.096Z,29.63
2022-11-09T16:31:03.930Z,28.50
2022-11-09T16:33:30.688Z,27.80
2022-11-09T16:36:00.560Z,28.73
2022-11-09T16:38:33.906Z,30.55
2022-11-09T16:41:02.918Z,27.25
2022-11-09T16:43:36.219Z,28.40
2022-11-09T16:46:02.582Z,28.05
2022-11-09T16:48:33.085Z,25.35
2022-11-09T16:50:59.595Z,23.30
2022-11-09T16:53:27.249Z,23.10
2022-11-09T16:55:54.240Z,23.10
2022-11-09T16:58:21.004Z,22.60
2022-11-09T17:01:09.536Z,26.05
2022-11-09T17:03:36.017Z,25.05
2022-11-09T17:06:03.441Z,26.55
2022-11-09T17:08:29.744Z,28.65
2022-11-09T17:10:56.131Z,27.52
2022-11-09T17:13:22.458Z,29.67
2022-11-09T17:15:51.778Z,29.15
2022-11-09T17:18:18.403Z,29.35
2022-11-09T17:20:48.013Z,29.08
2022-11-09T17:23:16.193Z,27.90
2022-11-09T17:25:42.508Z,28.35
2022-11-09T17:28:08.991Z,26.00
2022-11-09T17:30:35.384Z,26.92
2022-11-09T17:33:01.708Z,27.65
2022-11-09T17:35:28.768Z,27.08
2022-11-09T17:37:55.064Z,26.60
2022-11-09T17:40:21.449Z,26.73
2022-11-09T17:42:47.924Z,29.05
2022-11-09T17:45:14.373Z,26.30
2022-11-09T17:47:41.428Z,28.30
2022-11-09T17:50:08.197Z,29.48
2022-11-09T17:52:34.571Z,31.58
2022-11-09T17:55:00.898Z,34.60
2022-11-09T17:57:27.225Z,33.47
2022-11-09T17:59:53.594Z,31.55
2022-11-09T18:02:20.058Z,33.58
2022-11-09T18:04:46.542Z,31.95
2022-11-09T18:07:12.950Z,30.80
2022-11-09T18:09:42.112Z,31.23
2022-11-09T18:12:09.426Z,32.55
2022-11-09T18:14:35.808Z,29.20
2022-11-09T18:17:02.310Z,29.95
2022-11-09T18:19:28.699Z,31.33
2022-11-09T18:21:55.040Z,30.83
2022-11-09T18:24:21.354Z,31.08
2022-11-09T18:26:47.665Z,29.63
2022-11-09T18:29:13.974Z,29.40
2022-11-09T18:31:40.307Z,30.50
2022-11-09T18:34:06.631Z,30.20
2022-11-09T18:36:32.978Z,29.52
2022-11-09T18:38:59.340Z,31.00
2022-11-09T18:41:25.750Z,29.83
2022-11-09T18:43:53.884Z,30.35
2022-11-09T18:46:21.387Z,30.08
2022-11-09T18:48:52.460Z,30.08
2022-11-09T18:51:19.338Z,32.10
2022-11-09T18:53:47.505Z,33.40
2022-11-09T18:56:19.013Z,33.60
2022-11-09T18:58:45.947Z,33.85
2022-11-09T19:01:12.724Z,34.88
2022-11-09T19:03:39.183Z,33.38
2022-11-09T19:06:07.276Z,34.97
2022-11-09T19:08:52.622Z,33.72
2022-11-09T19:11:19.136Z,34.35
2022-11-09T19:13:45.444Z,33.78
2022-11-09T19:16:13.340Z,34.22
2022-11-09T19:18:39.960Z,35.10
2022-11-09T19:21:17.681Z,34.63
2022-11-09T19:23:43.994Z,33.58
2022-11-09T19:26:10.308Z,34.53
2022-11-09T19:28:36.600Z,34.30
2022-11-09T19:31:02.939Z,33.72
2022-11-09T19:33:29.242Z,36.97
2022-11-09T19:36:23.214Z,36.00
2022-11-09T19:38:44.604Z,34.70
2022-11-09T19:41:11.458Z,34.72
2022-11-09T19:43:37.794Z,35.35
2022-11-09T19:46:04.606Z,33.42
2022-11-09T19:48:32.901Z,33.65
2022-11-09T19:50:59.288Z,33.38
2022-11-09T19:53:26.606Z,32.83
2022-11-09T19:56:04.198Z,35.20
2022-11-09T19:58:31.737Z,33.65
2022-11-09T20:01:05.929Z,34.95
2022-11-09T20:03:37.408Z,34.60
2022-11-09T20:06:05.360Z,33.40
2022-11-09T20:08:33.622Z,34.65
2022-11-09T20:11:34.687Z,33.65
2022-11-09T20:14:01.386Z,32.70
2022-11-09T20:16:27.873Z,35.08
2022-11-09T20:18:54.750Z,35.72
2022-11-09T20:21:22.333Z,36.67
2022-11-09T20:23:48.863Z,34.10
2022-11-09T20:26:15.182Z,36.72
2022-11-09T20:28:41.813Z,35.50
2022-11-09T20:31:13.157Z,34.67
2022-11-09T20:33:39.537Z,34.38
2022-11-09T20:36:06.193Z,35.42
2022-11-09T20:38:33.447Z,35.08
2022-11-09T20:41:02.198Z,34.78
2022-11-09T20:43:28.791Z,36.75
2022-11-09T20:45:55.746Z,36.35
2022-11-09T20:48:51.546Z,36.20
2022-11-09T20:51:11.994Z,35.95
2022-11-09T20:53:38.766Z,36.15
2022-11-09T20:56:05.297Z,34.40
2022-11-09T20:58:31.606Z,36.20
2022-11-09T21:01:14.109Z,35.75
2022-11-09T21:03:40.712Z,34.05
2022-11-09T21:06:08.592Z,36.05
2022-11-09T21:08:35.305Z,35.85
2022-11-09T21:11:03.603Z,35.00
2022-11-09T21:13:30.890Z,35.88
2022-11-09T21:16:07.753Z,38.10
2022-11-09T21:18:34.577Z,34.65
2022-11-09T21:21:05.977Z,37.60
2022-11-09T21:23:50.878Z,37.72
2022-11-09T21:26:35.593Z,37.50
2022-11-09T21:31:46.707Z,34.83
2022-11-09T21:34:13.012Z,36.20
2022-11-09T21:36:42.267Z,36.50
2022-11-09T21:39:08.673Z,36.97
2022-11-09T21:41:37.816Z,37.40
2022-11-09T21:44:05.598Z,38.60
2022-11-09T21:46:32.169Z,37.63
2022-11-09T21:48:58.515Z,34.42
2022-11-09T21:51:25.146Z,37.70
2022-11-09T21:53:51.596Z,37.97
2022-11-09T21:56:18.308Z,38.20
2022-11-09T21:58:48.599Z,35.67
2022-11-09T22:01:16.504Z,36.80
2022-11-09T22:03:45.290Z,37.17
2022-11-09T22:06:12.679Z,38.67
2022-11-09T22:08:39.343Z,39.08
2022-11-09T22:11:17.350Z,40.17
2022-11-09T22:14:02.904Z,41.83
2022-11-09T22:16:33.740Z,35.72
2022-11-09T22:19:21.514Z,37.33
2022-11-09T22:21:47.846Z,38.50
2022-11-09T22:24:14.173Z,37.38
2022-11-09T22:26:40.476Z,36.58
2022-11-09T22:29:06.818Z,39.33
2022-11-09T22:31:33.251Z,36.42
2022-11-09T22:33:59.585Z,36.63
2022-11-09T22:36:25.897Z,39.10
2022-11-09T22:38:52.284Z,39.47
2022-11-09T22:41:18.671Z,40.92
2022-11-09T22:43:45.120Z,38.95
2022-11-09T22:46:14.106Z,39.40
2022-11-09T22:48:41.730Z,39.83
2022-11-09T22:51:08.937Z,39.38
2022-11-09T22:53:35.347Z,39.22
2022-11-09T22:56:03.347Z,37.70
2022-11-09T22:58:30.324Z,39.65
2022-11-09T23:01:10.301Z,39.47
2022-11-09T23:03:36.699Z,40.10
2022-11-09T23:06:09.164Z,38.95
2022-11-09T23:08:39.325Z,39.35
2022-11-09T23:11:07.359Z,38.53
2022-11-09T23:13:36.760Z,38.72
2022-11-09T23:16:06.050Z,40.60
2022-11-09T23:18:51.303Z,37.83
2022-11-09T23:21:18.381Z,38.50
2022-11-09T23:23:45.002Z,38.42
2022-11-09T23:26:12.169Z,35.20
2022-11-09T23:28:38.790Z,38.00
2022-11-09T23:31:07.888Z,36.40
2022-11-09T23:33:34.932Z,38.42
2022-11-09T23:36:03.051Z,38.30
2022-11-09T23:38:31.640Z,38.90
2022-11-09T23:41:05.128Z,36.58
2022-11-09T23:43:31.762Z,37.30
2022-11-09T23:46:03.204Z,35.83
2022-11-09T23:48:29.584Z,35.50
2022-11-09T23:51:00.451Z,35.85
2022-11-09T23:53:28.497Z,35.40
2022-11-09T23:55:59.180Z,36.65
2022-11-09T23:58:25.520Z,36.40
